sensor_id;sensor_type;location;lat;lon;timestamp;temperature;humidity
67133;HTU21D;54052;53.542;49.408;2023-03-03T00:02:27;-4.87;75.84
67133;HTU21D;54052;53.542;49.408;2023-03-03T00:04:54;-4.83;75.05
67133;HTU21D;54052;53.542;49.408;2023-03-03T00:07:21;-4.76;75.28
67133;HTU21D;54052;53.542;49.408;2023-03-03T00:09:48;-4.73;74.86
67133;HTU21D;54052;53.542;49.408;2023-03-03T00:12:28;-4.70;75.30
67133;HTU21D;54052;53.542;49.408;2023-03-03T00:14:54;-4.74;75.90
67133;HTU21D;54052;53.542;49.408;2023-03-03T00:17:26;-4.66;75.32
67133;HTU21D;54052;53.542;49.408;2023-03-03T00:19:52;-4.64;75.25
67133;HTU21D;54052;53.542;49.408;2023-03-03T00:22:28;-4.68;75.52
67133;HTU21D;54052;53.542;49.408;2023-03-03T00:24:59;-4.67;75.46
67133;HTU21D;54052;53.542;49.408;2023-03-03T00:27:29;-4.66;75.66
67133;HTU21D;54052;53.542;49.408;2023-03-03T00:29:57;-4.64;75.68
67133;HTU21D;54052;53.542;49.408;2023-03-03T00:32:43;-4.70;75.73
67133;HTU21D;54052;53.542;49.408;2023-03-03T00:35:31;-4.75;76.25
67133;HTU21D;54052;53.542;49.408;2023-03-03T00:38:13;-4.72;75.83
67133;HTU21D;54052;53.542;49.408;2023-03-03T00:40:40;-4.70;75.88
67133;HTU21D;54052;53.542;49.408;2023-03-03T00:43:30;-4.75;76.15
67133;HTU21D;54052;53.542;49.408;2023-03-03T00:45:59;-4.78;75.99
67133;HTU21D;54052;53.542;49.408;2023-03-03T00:48:28;-4.80;76.47
67133;HTU21D;54052;53.542;49.408;2023-03-03T00:53:49;-4.83;76.72
67133;HTU21D;54052;53.542;49.408;2023-03-03T00:56:16;-4.84;77.27
67133;HTU21D;54052;53.542;49.408;2023-03-03T00:58:42;-4.86;77.61
67133;HTU21D;54052;53.542;49.408;2023-03-03T01:01:10;-4.93;78.23
67133;HTU21D;54052;53.542;49.408;2023-03-03T01:03:36;-4.95;78.44
67133;HTU21D;54052;53.542;49.408;2023-03-03T01:06:02;-4.96;78.72
67133;HTU21D;54052;53.542;49.408;2023-03-03T01:08:28;-4.95;78.95
67133;HTU21D;54052;53.542;49.408;2023-03-03T01:10:57;-4.91;79.17
67133;HTU21D;54052;53.542;49.408;2023-03-03T01:13:29;-4.96;79.28
67133;HTU21D;54052;53.542;49.408;2023-03-03T01:15:58;-4.93;79.21
67133;HTU21D;54052;53.542;49.408;2023-03-03T01:18:25;-4.86;79.15
67133;HTU21D;54052;53.542;49.408;2023-03-03T01:20:51;-4.86;79.49
67133;HTU21D;54052;53.542;49.408;2023-03-03T01:23:17;-4.80;79.56
67133;HTU21D;54052;53.542;49.408;2023-03-03T01:25:43;-4.80;79.30
67133;HTU21D;54052;53.542;49.408;2023-03-03T01:28:09;-4.76;79.19
67133;HTU21D;54052;53.542;49.408;2023-03-03T01:30:35;-4.76;79.33
67133;HTU21D;54052;53.542;49.408;2023-03-03T01:33:01;-4.80;79.24
67133;HTU21D;54052;53.542;49.408;2023-03-03T01:35:27;-4.73;79.29
67133;HTU21D;54052;53.542;49.408;2023-03-03T01:37:54;-4.72;79.41
67133;HTU21D;54052;53.542;49.408;2023-03-03T01:40:27;-4.73;79.21
67133;HTU21D;54052;53.542;49.408;2023-03-03T01:42:53;-4.76;79.45
67133;HTU21D;54052;53.542;49.408;2023-03-03T01:45:22;-4.75;79.63
67133;HTU21D;54052;53.542;49.408;2023-03-03T01:48:04;-4.69;79.14
67133;HTU21D;54052;53.542;49.408;2023-03-03T01:50:53;-4.71;79.63
67133;HTU21D;54052;53.542;49.408;2023-03-03T01:53:48;-4.74;79.69
67133;HTU21D;54052;53.542;49.408;2023-03-03T01:56:15;-4.78;79.69
67133;HTU21D;54052;53.542;49.408;2023-03-03T01:58:44;-4.80;80.09
67133;HTU21D;54052;53.542;49.408;2023-03-03T02:01:15;-4.83;80.31
67133;HTU21D;54052;53.542;49.408;2023-03-03T02:03:42;-4.87;79.76
67133;HTU21D;54052;53.542;49.408;2023-03-03T02:06:15;-4.84;80.10
67133;HTU21D;54052;53.542;49.408;2023-03-03T02:08:52;-4.82;80.21
67133;HTU21D;54052;53.542;49.408;2023-03-03T02:11:21;-4.86;80.42
67133;HTU21D;54052;53.542;49.408;2023-03-03T02:13:47;-4.81;80.46
67133;HTU21D;54052;53.542;49.408;2023-03-03T02:16:13;-4.79;79.88
67133;HTU21D;54052;53.542;49.408;2023-03-03T02:18:39;-4.85;79.95
67133;HTU21D;54052;53.542;49.408;2023-03-03T02:21:13;-4.90;80.40
67133;HTU21D;54052;53.542;49.408;2023-03-03T02:24:22;-4.90;80.81
67133;HTU21D;54052;53.542;49.408;2023-03-03T02:26:50;-4.93;80.46
67133;HTU21D;54052;53.542;49.408;2023-03-03T02:29:16;-4.95;80.73
67133;HTU21D;54052;53.542;49.408;2023-03-03T02:31:42;-4.87;80.20
67133;HTU21D;54052;53.542;49.408;2023-03-03T02:34:08;-4.80;79.83
67133;HTU21D;54052;53.542;49.408;2023-03-03T02:36:36;-4.79;79.46
67133;HTU21D;54052;53.542;49.408;2023-03-03T02:41:43;-4.65;79.46
67133;HTU21D;54052;53.542;49.408;2023-03-03T02:44:14;-4.57;78.89
67133;HTU21D;54052;53.542;49.408;2023-03-03T02:46:43;-4.63;78.75
67133;HTU21D;54052;53.542;49.408;2023-03-03T02:49:11;-4.64;78.85
67133;HTU21D;54052;53.542;49.408;2023-03-03T02:51:38;-4.57;78.61
67133;HTU21D;54052;53.542;49.408;2023-03-03T02:54:05;-4.53;78.48
67133;HTU21D;54052;53.542;49.408;2023-03-03T02:56:31;-4.49;78.42
67133;HTU21D;54052;53.542;49.408;2023-03-03T02:58:58;-4.46;77.70
67133;HTU21D;54052;53.542;49.408;2023-03-03T03:01:24;-4.48;77.97
67133;HTU21D;54052;53.542;49.408;2023-03-03T03:03:50;-4.51;77.95
67133;HTU21D;54052;53.542;49.408;2023-03-03T03:06:16;-4.57;78.21
67133;HTU21D;54052;53.542;49.408;2023-03-03T03:08:42;-4.51;78.59
67133;HTU21D;54052;53.542;49.408;2023-03-03T03:11:08;-4.52;78.47
67133;HTU21D;54052;53.542;49.408;2023-03-03T03:13:34;-4.56;78.42
67133;HTU21D;54052;53.542;49.408;2023-03-03T03:16:00;-4.54;78.46
67133;HTU21D;54052;53.542;49.408;2023-03-03T03:18:27;-4.54;78.30
67133;HTU21D;54052;53.542;49.408;2023-03-03T03:20:53;-4.50;78.58
67133;HTU21D;54052;53.542;49.408;2023-03-03T03:23:19;-4.56;77.76
67133;HTU21D;54052;53.542;49.408;2023-03-03T03:25:48;-4.55;78.39
67133;HTU21D;54052;53.542;49.408;2023-03-03T03:28:16;-4.56;78.83
67133;HTU21D;54052;53.542;49.408;2023-03-03T03:30:42;-4.58;77.97
67133;HTU21D;54052;53.542;49.408;2023-03-03T03:33:11;-4.61;78.28
67133;HTU21D;54052;53.542;49.408;2023-03-03T03:35:38;-4.68;78.29
67133;HTU21D;54052;53.542;49.408;2023-03-03T03:38:10;-4.68;78.61
67133;HTU21D;54052;53.542;49.408;2023-03-03T03:40:37;-4.67;79.08
67133;HTU21D;54052;53.542;49.408;2023-03-03T03:43:02;-4.54;77.69
67133;HTU21D;54052;53.542;49.408;2023-03-03T03:45:28;-4.46;77.34
67133;HTU21D;54052;53.542;49.408;2023-03-03T03:47:54;-4.52;78.08
67133;HTU21D;54052;53.542;49.408;2023-03-03T03:50:21;-4.48;78.01
67133;HTU21D;54052;53.542;49.408;2023-03-03T03:52:47;-4.43;77.33
67133;HTU21D;54052;53.542;49.408;2023-03-03T03:55:13;-4.50;77.95
67133;HTU21D;54052;53.542;49.408;2023-03-03T03:57:40;-4.57;77.44
67133;HTU21D;54052;53.542;49.408;2023-03-03T04:00:08;-4.52;77.49
67133;HTU21D;54052;53.542;49.408;2023-03-03T04:02:34;-4.43;76.74
67133;HTU21D;54052;53.542;49.408;2023-03-03T04:05:01;-4.36;76.86
67133;HTU21D;54052;53.542;49.408;2023-03-03T04:07:27;-4.35;76.05
67133;HTU21D;54052;53.542;49.408;2023-03-03T04:09:54;-4.42;76.00
67133;HTU21D;54052;53.542;49.408;2023-03-03T04:12:20;-4.41;76.96
67133;HTU21D;54052;53.542;49.408;2023-03-03T04:14:46;-4.35;76.32
67133;HTU21D;54052;53.542;49.408;2023-03-03T04:17:17;-4.31;76.69
67133;HTU21D;54052;53.542;49.408;2023-03-03T04:19:43;-4.28;76.01
67133;HTU21D;54052;53.542;49.408;2023-03-03T04:22:10;-4.20;75.89
67133;HTU21D;54052;53.542;49.408;2023-03-03T04:24:37;-4.09;74.70
67133;HTU21D;54052;53.542;49.408;2023-03-03T04:27:03;-4.10;74.86
67133;HTU21D;54052;53.542;49.408;2023-03-03T04:29:29;-4.23;75.03
67133;HTU21D;54052;53.542;49.408;2023-03-03T04:31:55;-4.16;75.04
67133;HTU21D;54052;53.542;49.408;2023-03-03T04:34:21;-4.13;74.27
67133;HTU21D;54052;53.542;49.408;2023-03-03T04:36:47;-4.16;73.45
67133;HTU21D;54052;53.542;49.408;2023-03-03T04:39:13;-4.12;73.91
67133;HTU21D;54052;53.542;49.408;2023-03-03T04:41:39;-4.07;73.34
67133;HTU21D;54052;53.542;49.408;2023-03-03T04:44:05;-4.13;73.25
67133;HTU21D;54052;53.542;49.408;2023-03-03T04:46:31;-4.12;73.30
67133;HTU21D;54052;53.542;49.408;2023-03-03T04:48:57;-4.10;74.52
67133;HTU21D;54052;53.542;49.408;2023-03-03T04:51:23;-4.06;73.64
67133;HTU21D;54052;53.542;49.408;2023-03-03T04:53:49;-4.07;73.51
67133;HTU21D;54052;53.542;49.408;2023-03-03T04:56:15;-4.01;73.28
67133;HTU21D;54052;53.542;49.408;2023-03-03T04:58:41;-3.98;74.03
67133;HTU21D;54052;53.542;49.408;2023-03-03T05:01:09;-4.01;73.51
67133;HTU21D;54052;53.542;49.408;2023-03-03T05:03:37;-4.04;74.44
67133;HTU21D;54052;53.542;49.408;2023-03-03T05:06:03;-4.11;74.57
67133;HTU21D;54052;53.542;49.408;2023-03-03T05:08:29;-4.16;75.73
67133;HTU21D;54052;53.542;49.408;2023-03-03T05:10:55;-4.08;74.98
67133;HTU21D;54052;53.542;49.408;2023-03-03T05:13:21;-3.96;74.77
67133;HTU21D;54052;53.542;49.408;2023-03-03T05:15:52;-4.02;74.99
67133;HTU21D;54052;53.542;49.408;2023-03-03T05:18:23;-4.02;75.25
67133;HTU21D;54052;53.542;49.408;2023-03-03T05:20:51;-4.07;76.59
67133;HTU21D;54052;53.542;49.408;2023-03-03T05:23:17;-4.02;76.50
67133;HTU21D;54052;53.542;49.408;2023-03-03T05:25:46;-3.98;76.15
67133;HTU21D;54052;53.542;49.408;2023-03-03T05:28:12;-4.01;75.98
67133;HTU21D;54052;53.542;49.408;2023-03-03T05:30:39;-4.20;75.98
67133;HTU21D;54052;53.542;49.408;2023-03-03T05:33:05;-4.12;77.08
67133;HTU21D;54052;53.542;49.408;2023-03-03T05:35:31;-4.10;76.73
67133;HTU21D;54052;53.542;49.408;2023-03-03T05:37:58;-3.95;76.92
67133;HTU21D;54052;53.542;49.408;2023-03-03T05:40:25;-3.90;76.10
67133;HTU21D;54052;53.542;49.408;2023-03-03T05:42:51;-3.84;76.24
67133;HTU21D;54052;53.542;49.408;2023-03-03T05:45:18;-3.92;77.03
67133;HTU21D;54052;53.542;49.408;2023-03-03T05:47:50;-3.96;77.34
67133;HTU21D;54052;53.542;49.408;2023-03-03T05:50:17;-3.95;77.37
67133;HTU21D;54052;53.542;49.408;2023-03-03T05:52:47;-3.81;77.31
67133;HTU21D;54052;53.542;49.408;2023-03-03T05:55:13;-3.75;77.72
67133;HTU21D;54052;53.542;49.408;2023-03-03T05:57:39;-3.69;77.31
67133;HTU21D;54052;53.542;49.408;2023-03-03T06:00:07;-3.67;77.53
67133;HTU21D;54052;53.542;49.408;2023-03-03T06:02:33;-3.75;78.63
67133;HTU21D;54052;53.542;49.408;2023-03-03T06:04:59;-3.54;77.96
67133;HTU21D;54052;53.542;49.408;2023-03-03T06:07:25;-3.33;77.08
67133;HTU21D;54052;53.542;49.408;2023-03-03T06:09:51;-3.23;76.69
67133;HTU21D;54052;53.542;49.408;2023-03-03T06:12:17;-3.07;76.44
67133;HTU21D;54052;53.542;49.408;2023-03-03T06:14:43;-2.81;75.25
67133;HTU21D;54052;53.542;49.408;2023-03-03T06:17:09;-2.82;75.19
67133;HTU21D;54052;53.542;49.408;2023-03-03T06:19:36;-2.78;74.19
67133;HTU21D;54052;53.542;49.408;2023-03-03T06:22:02;-2.69;74.40
67133;HTU21D;54052;53.542;49.408;2023-03-03T06:24:28;-2.61;73.78
67133;HTU21D;54052;53.542;49.408;2023-03-03T06:26:57;-2.67;73.72
67133;HTU21D;54052;53.542;49.408;2023-03-03T06:29:23;-2.81;75.05
67133;HTU21D;54052;53.542;49.408;2023-03-03T06:31:49;-2.66;74.42
67133;HTU21D;54052;53.542;49.408;2023-03-03T06:34:15;-2.59;74.63
67133;HTU21D;54052;53.542;49.408;2023-03-03T06:36:41;-2.52;74.02
67133;HTU21D;54052;53.542;49.408;2023-03-03T06:39:07;-2.51;74.15
67133;HTU21D;54052;53.542;49.408;2023-03-03T06:41:33;-2.42;73.72
67133;HTU21D;54052;53.542;49.408;2023-03-03T06:43:59;-2.47;73.98
67133;HTU21D;54052;53.542;49.408;2023-03-03T06:46:26;-2.32;73.96
67133;HTU21D;54052;53.542;49.408;2023-03-03T06:48:52;-2.42;73.99
67133;HTU21D;54052;53.542;49.408;2023-03-03T06:51:30;-2.23;73.98
67133;HTU21D;54052;53.542;49.408;2023-03-03T06:54:01;-2.18;74.31
67133;HTU21D;54052;53.542;49.408;2023-03-03T06:56:27;-2.05;73.62
67133;HTU21D;54052;53.542;49.408;2023-03-03T06:58:59;-1.89;73.22
67133;HTU21D;54052;53.542;49.408;2023-03-03T07:01:32;-1.63;71.52
67133;HTU21D;54052;53.542;49.408;2023-03-03T07:03:59;-1.26;71.94
67133;HTU21D;54052;53.542;49.408;2023-03-03T07:06:26;-1.11;70.88
67133;HTU21D;54052;53.542;49.408;2023-03-03T07:08:53;-1.00;69.65
67133;HTU21D;54052;53.542;49.408;2023-03-03T07:11:22;-0.75;68.85
67133;HTU21D;54052;53.542;49.408;2023-03-03T07:13:50;-0.82;69.10
67133;HTU21D;54052;53.542;49.408;2023-03-03T07:16:18;-0.57;68.76
67133;HTU21D;54052;53.542;49.408;2023-03-03T07:18:58;-0.51;67.93
67133;HTU21D;54052;53.542;49.408;2023-03-03T07:21:34;-0.56;68.56
67133;HTU21D;54052;53.542;49.408;2023-03-03T07:26:47;-0.51;68.16
67133;HTU21D;54052;53.542;49.408;2023-03-03T07:29:28;-0.57;69.56
67133;HTU21D;54052;53.542;49.408;2023-03-03T07:31:59;-0.21;67.26
67133;HTU21D;54052;53.542;49.408;2023-03-03T07:37:09;-0.29;67.28
67133;HTU21D;54052;53.542;49.408;2023-03-03T07:39:38;-0.30;68.08
67133;HTU21D;54052;53.542;49.408;2023-03-03T07:44:35;-0.01;66.42
67133;HTU21D;54052;53.542;49.408;2023-03-03T07:49:40;-0.06;65.86
67133;HTU21D;54052;53.542;49.408;2023-03-03T07:54:46;-0.41;67.47
67133;HTU21D;54052;53.542;49.408;2023-03-03T08:02:52;0.05;65.97
67133;HTU21D;54052;53.542;49.408;2023-03-03T08:07:49;-0.09;67.54
67133;HTU21D;54052;53.542;49.408;2023-03-03T08:13:21;-0.30;67.54
67133;HTU21D;54052;53.542;49.408;2023-03-03T08:15:50;-0.52;69.06
67133;HTU21D;54052;53.542;49.408;2023-03-03T08:18:24;-0.31;68.01
67133;HTU21D;54052;53.542;49.408;2023-03-03T08:20:58;-0.41;68.53
67133;HTU21D;54052;53.542;49.408;2023-03-03T08:23:25;-0.28;67.60
67133;HTU21D;54052;53.542;49.408;2023-03-03T08:25:52;-0.12;67.74
67133;HTU21D;54052;53.542;49.408;2023-03-03T08:28:19;-0.07;67.13
67133;HTU21D;54052;53.542;49.408;2023-03-03T08:30:45;0.04;66.96
67133;HTU21D;54052;53.542;49.408;2023-03-03T08:33:12;0.12;68.26
67133;HTU21D;54052;53.542;49.408;2023-03-03T08:35:39;0.36;66.88
67133;HTU21D;54052;53.542;49.408;2023-03-03T08:38:06;0.30;66.36
67133;HTU21D;54052;53.542;49.408;2023-03-03T08:40:32;0.42;66.17
67133;HTU21D;54052;53.542;49.408;2023-03-03T08:42:58;-0.12;67.25
67133;HTU21D;54052;53.542;49.408;2023-03-03T08:45:25;-0.09;68.13
67133;HTU21D;54052;53.542;49.408;2023-03-03T08:47:52;0.01;67.23
67133;HTU21D;54052;53.542;49.408;2023-03-03T08:50:18;0.01;67.81
67133;HTU21D;54052;53.542;49.408;2023-03-03T08:52:45;0.04;67.60
67133;HTU21D;54052;53.542;49.408;2023-03-03T08:55:11;0.08;67.05
67133;HTU21D;54052;53.542;49.408;2023-03-03T08:57:38;-0.08;68.23
67133;HTU21D;54052;53.542;49.408;2023-03-03T09:00:07;0.13;69.13
67133;HTU21D;54052;53.542;49.408;2023-03-03T09:02:33;0.08;67.84
67133;HTU21D;54052;53.542;49.408;2023-03-03T09:04:59;-0.10;68.62
67133;HTU21D;54052;53.542;49.408;2023-03-03T09:07:25;0.01;68.94
67133;HTU21D;54052;53.542;49.408;2023-03-03T09:09:51;-0.09;69.43
67133;HTU21D;54052;53.542;49.408;2023-03-03T09:12:28;-0.13;69.41
67133;HTU21D;54052;53.542;49.408;2023-03-03T09:14:57;-0.13;69.29
67133;HTU21D;54052;53.542;49.408;2023-03-03T09:19:55;-0.22;70.37
67133;HTU21D;54052;53.542;49.408;2023-03-03T09:22:24;0.02;69.28
67133;HTU21D;54052;53.542;49.408;2023-03-03T09:24:56;-0.08;69.25
67133;HTU21D;54052;53.542;49.408;2023-03-03T09:27:28;-0.34;68.86
67133;HTU21D;54052;53.542;49.408;2023-03-03T09:29:56;-0.17;69.13
67133;HTU21D;54052;53.542;49.408;2023-03-03T09:32:37;-0.24;69.73
67133;HTU21D;54052;53.542;49.408;2023-03-03T09:37:52;-0.06;68.58
67133;HTU21D;54052;53.542;49.408;2023-03-03T09:43:53;0.29;67.48
67133;HTU21D;54052;53.542;49.408;2023-03-03T09:46:44;0.43;67.26
67133;HTU21D;54052;53.542;49.408;2023-03-03T10:00:13;1.41;63.79
67133;HTU21D;54052;53.542;49.408;2023-03-03T10:13:53;1.32;63.60
67133;HTU21D;54052;53.542;49.408;2023-03-03T10:21:49;1.39;63.55
67133;HTU21D;54052;53.542;49.408;2023-03-03T10:24:28;1.63;64.17
67133;HTU21D;54052;53.542;49.408;2023-03-03T10:29:52;1.94;62.98
67133;HTU21D;54052;53.542;49.408;2023-03-03T10:46:06;1.33;65.24
67133;HTU21D;54052;53.542;49.408;2023-03-03T10:51:26;1.41;64.05
67133;HTU21D;54052;53.542;49.408;2023-03-03T11:08:13;1.17;64.85
67133;HTU21D;54052;53.542;49.408;2023-03-03T11:13:39;1.21;64.09
67133;HTU21D;54052;53.542;49.408;2023-03-03T11:19:20;1.16;65.53
67133;HTU21D;54052;53.542;49.408;2023-03-03T11:32:51;1.12;64.84
67133;HTU21D;54052;53.542;49.408;2023-03-03T11:40:51;1.49;64.53
67133;HTU21D;54052;53.542;49.408;2023-03-03T11:43:26;1.42;64.37
67133;HTU21D;54052;53.542;49.408;2023-03-03T11:45:57;1.47;65.04
67133;HTU21D;54052;53.542;49.408;2023-03-03T11:53:56;1.32;66.14
67133;HTU21D;54052;53.542;49.408;2023-03-03T11:56:41;1.48;65.54
67133;HTU21D;54052;53.542;49.408;2023-03-03T12:01:55;1.45;65.82
67133;HTU21D;54052;53.542;49.408;2023-03-03T12:04:34;1.47;66.02
67133;HTU21D;54052;53.542;49.408;2023-03-03T12:07:27;1.65;65.78
67133;HTU21D;54052;53.542;49.408;2023-03-03T12:12:43;1.83;65.45
67133;HTU21D;54052;53.542;49.408;2023-03-03T12:25:42;1.80;65.30
67133;HTU21D;54052;53.542;49.408;2023-03-03T12:28:23;1.71;65.69
67133;HTU21D;54052;53.542;49.408;2023-03-03T12:34:14;1.35;67.37
67133;HTU21D;54052;53.542;49.408;2023-03-03T12:36:54;1.27;66.68
67133;HTU21D;54052;53.542;49.408;2023-03-03T12:47:45;0.64;68.31
67133;HTU21D;54052;53.542;49.408;2023-03-03T13:03:44;-0.31;72.12
67133;HTU21D;54052;53.542;49.408;2023-03-03T13:06:19;-0.51;73.12
67133;HTU21D;54052;53.542;49.408;2023-03-03T13:14:32;-0.61;73.57
67133;HTU21D;54052;53.542;49.408;2023-03-03T13:17:18;-0.55;73.29
67133;HTU21D;54052;53.542;49.408;2023-03-03T13:19:58;-0.55;73.32
67133;HTU21D;54052;53.542;49.408;2023-03-03T13:27:59;-0.62;73.07
67133;HTU21D;54052;53.542;49.408;2023-03-03T13:30:32;-0.57;72.85
67133;HTU21D;54052;53.542;49.408;2023-03-03T13:33:29;-0.57;73.55
67133;HTU21D;54052;53.542;49.408;2023-03-03T13:36:10;-0.71;73.45
67133;HTU21D;54052;53.542;49.408;2023-03-03T13:38:46;-0.72;73.26
67133;HTU21D;54052;53.542;49.408;2023-03-03T13:41:38;-0.69;73.30
67133;HTU21D;54052;53.542;49.408;2023-03-03T13:52:19;-0.66;74.19
67133;HTU21D;54052;53.542;49.408;2023-03-03T14:06:04;-0.98;75.15
67133;HTU21D;54052;53.542;49.408;2023-03-03T14:11:37;-1.11;75.61
67133;HTU21D;54052;53.542;49.408;2023-03-03T14:16:50;-1.13;75.60
67133;HTU21D;54052;53.542;49.408;2023-03-03T14:24:27;-0.99;75.95
67133;HTU21D;54052;53.542;49.408;2023-03-03T14:26:58;-0.99;75.37
67133;HTU21D;54052;53.542;49.408;2023-03-03T14:31:51;-1.11;76.09
67133;HTU21D;54052;53.542;49.408;2023-03-03T14:37:26;-1.25;76.79
67133;HTU21D;54052;53.542;49.408;2023-03-03T14:40:29;-1.30;77.71
67133;HTU21D;54052;53.542;49.408;2023-03-03T14:42:54;-1.29;77.27
67133;HTU21D;54052;53.542;49.408;2023-03-03T14:45:38;-1.40;77.65
67133;HTU21D;54052;53.542;49.408;2023-03-03T14:48:14;-1.47;78.22
67133;HTU21D;54052;53.542;49.408;2023-03-03T14:51:28;-1.53;78.53
67133;HTU21D;54052;53.542;49.408;2023-03-03T14:53:41;-1.54;78.50
67133;HTU21D;54052;53.542;49.408;2023-03-03T14:58:49;-1.61;79.18
67133;HTU21D;54052;53.542;49.408;2023-03-03T15:03:51;-1.58;79.26
67133;HTU21D;54052;53.542;49.408;2023-03-03T15:06:44;-1.67;78.92
67133;HTU21D;54052;53.542;49.408;2023-03-03T15:11:51;-1.58;78.75
67133;HTU21D;54052;53.542;49.408;2023-03-03T15:14:19;-1.62;78.87
67133;HTU21D;54052;53.542;49.408;2023-03-03T15:16:45;-1.59;78.97
67133;HTU21D;54052;53.542;49.408;2023-03-03T15:24:56;-1.61;78.88
67133;HTU21D;54052;53.542;49.408;2023-03-03T15:27:38;-1.63;79.49
67133;HTU21D;54052;53.542;49.408;2023-03-03T15:30:10;-1.65;80.13
67133;HTU21D;54052;53.542;49.408;2023-03-03T15:41:37;-1.57;80.15
67133;HTU21D;54052;53.542;49.408;2023-03-03T15:44:26;-1.54;80.41
67133;HTU21D;54052;53.542;49.408;2023-03-03T15:47:11;-1.49;80.44
67133;HTU21D;54052;53.542;49.408;2023-03-03T16:01:38;-1.29;80.95
67133;HTU21D;54052;53.542;49.408;2023-03-03T16:04:17;-1.33;80.98
67133;HTU21D;54052;53.542;49.408;2023-03-03T16:17:57;-1.16;81.39
67133;HTU21D;54052;53.542;49.408;2023-03-03T16:23:34;-1.15;81.59
67133;HTU21D;54052;53.542;49.408;2023-03-03T16:26:12;-1.13;81.36
67133;HTU21D;54052;53.542;49.408;2023-03-03T16:29:06;-1.18;81.66
67133;HTU21D;54052;53.542;49.408;2023-03-03T16:31:55;-1.19;82.01
67133;HTU21D;54052;53.542;49.408;2023-03-03T16:34:35;-1.31;82.52
67133;HTU21D;54052;53.542;49.408;2023-03-03T16:37:29;-1.43;83.53
67133;HTU21D;54052;53.542;49.408;2023-03-03T16:42:36;-1.46;84.13
67133;HTU21D;54052;53.542;49.408;2023-03-03T16:47:58;-1.30;83.26
67133;HTU21D;54052;53.542;49.408;2023-03-03T16:56:03;-1.32;83.63
67133;HTU21D;54052;53.542;49.408;2023-03-03T17:01:44;-1.32;83.65
67133;HTU21D;54052;53.542;49.408;2023-03-03T17:10:03;-1.54;84.69
67133;HTU21D;54052;53.542;49.408;2023-03-03T17:18:04;-1.49;85.02
67133;HTU21D;54052;53.542;49.408;2023-03-03T17:34:10;-1.52;86.04
67133;HTU21D;54052;53.542;49.408;2023-03-03T17:41:57;-1.43;86.67
67133;HTU21D;54052;53.542;49.408;2023-03-03T17:47:04;-1.28;85.77
67133;HTU21D;54052;53.542;49.408;2023-03-03T17:52:42;-1.25;85.27
67133;HTU21D;54052;53.542;49.408;2023-03-03T17:55:17;-1.28;85.26
67133;HTU21D;54052;53.542;49.408;2023-03-03T18:04:03;-1.44;86.64
67133;HTU21D;54052;53.542;49.408;2023-03-03T18:26:33;-1.21;86.36
67133;HTU21D;54052;53.542;49.408;2023-03-03T18:29:19;-1.23;86.17
67133;HTU21D;54052;53.542;49.408;2023-03-03T18:37:01;-1.19;86.75
67133;HTU21D;54052;53.542;49.408;2023-03-03T18:39:46;-1.18;86.80
67133;HTU21D;54052;53.542;49.408;2023-03-03T18:44:43;-1.09;86.62
67133;HTU21D;54052;53.542;49.408;2023-03-03T18:47:09;-1.10;86.92
67133;HTU21D;54052;53.542;49.408;2023-03-03T18:50:04;-1.03;87.11
67133;HTU21D;54052;53.542;49.408;2023-03-03T18:52:34;-0.95;86.75
67133;HTU21D;54052;53.542;49.408;2023-03-03T18:57:37;-0.93;86.86
67133;HTU21D;54052;53.542;49.408;2023-03-03T19:00:23;-0.83;86.81
67133;HTU21D;54052;53.542;49.408;2023-03-03T19:02:56;-0.77;86.55
67133;HTU21D;54052;53.542;49.408;2023-03-03T19:05:45;-0.77;86.67
67133;HTU21D;54052;53.542;49.408;2023-03-03T19:08:22;-0.69;86.61
67133;HTU21D;54052;53.542;49.408;2023-03-03T19:10:58;-0.66;86.12
67133;HTU21D;54052;53.542;49.408;2023-03-03T19:16:00;-0.67;86.34
67133;HTU21D;54052;53.542;49.408;2023-03-03T19:18:28;-0.69;86.28
67133;HTU21D;54052;53.542;49.408;2023-03-03T19:21:02;-0.74;86.66
67133;HTU21D;54052;53.542;49.408;2023-03-03T19:24:23;-0.74;86.95
67133;HTU21D;54052;53.542;49.408;2023-03-03T19:27:23;-0.70;86.39
67133;HTU21D;54052;53.542;49.408;2023-03-03T19:30:06;-0.76;86.86
67133;HTU21D;54052;53.542;49.408;2023-03-03T19:35:31;-0.71;86.65
67133;HTU21D;54052;53.542;49.408;2023-03-03T19:38:41;-0.71;86.55
67133;HTU21D;54052;53.542;49.408;2023-03-03T19:43:52;-0.72;86.34
67133;HTU21D;54052;53.542;49.408;2023-03-03T19:47:22;-0.79;86.20
67133;HTU21D;54052;53.542;49.408;2023-03-03T19:57:36;-0.75;86.51
67133;HTU21D;54052;53.542;49.408;2023-03-03T20:05:12;-0.71;86.72
67133;HTU21D;54052;53.542;49.408;2023-03-03T20:26:53;-0.54;85.93
67133;HTU21D;54052;53.542;49.408;2023-03-03T20:45:38;-0.58;85.04
67133;HTU21D;54052;53.542;49.408;2023-03-03T20:48:31;-0.68;85.45
67133;HTU21D;54052;53.542;49.408;2023-03-03T21:01:37;-0.71;85.40
67133;HTU21D;54052;53.542;49.408;2023-03-03T21:04:21;-0.62;84.97
67133;HTU21D;54052;53.542;49.408;2023-03-03T21:06:48;-0.59;84.68
67133;HTU21D;54052;53.542;49.408;2023-03-03T21:11:47;-0.58;84.52
67133;HTU21D;54052;53.542;49.408;2023-03-03T21:16:46;-0.58;84.48
67133;HTU21D;54052;53.542;49.408;2023-03-03T21:19:25;-0.54;84.40
67133;HTU21D;54052;53.542;49.408;2023-03-03T21:21:53;-0.49;83.80
67133;HTU21D;54052;53.542;49.408;2023-03-03T21:24:19;-0.51;83.70
67133;HTU21D;54052;53.542;49.408;2023-03-03T21:27:22;-0.53;83.94
67133;HTU21D;54052;53.542;49.408;2023-03-03T21:30:01;-0.50;84.23
67133;HTU21D;54052;53.542;49.408;2023-03-03T21:32:43;-0.47;83.81
67133;HTU21D;54052;53.542;49.408;2023-03-03T21:35:15;-0.44;83.99
67133;HTU21D;54052;53.542;49.408;2023-03-03T21:40:24;-0.38;83.85
67133;HTU21D;54052;53.542;49.408;2023-03-03T21:42:56;-0.42;85.13
67133;HTU21D;54052;53.542;49.408;2023-03-03T21:45:24;-0.35;85.21
67133;HTU21D;54052;53.542;49.408;2023-03-03T21:47:50;-0.36;85.45
67133;HTU21D;54052;53.542;49.408;2023-03-03T21:50:17;-0.35;85.32
67133;HTU21D;54052;53.542;49.408;2023-03-03T21:52:47;-0.43;85.96
67133;HTU21D;54052;53.542;49.408;2023-03-03T21:55:13;-0.43;86.06
67133;HTU21D;54052;53.542;49.408;2023-03-03T21:57:39;-0.45;85.89
67133;HTU21D;54052;53.542;49.408;2023-03-03T22:00:07;-0.42;85.58
67133;HTU21D;54052;53.542;49.408;2023-03-03T22:02:36;-0.47;85.66
67133;HTU21D;54052;53.542;49.408;2023-03-03T22:05:02;-0.43;85.13
67133;HTU21D;54052;53.542;49.408;2023-03-03T22:07:28;-0.39;84.21
67133;HTU21D;54052;53.542;49.408;2023-03-03T22:09:54;-0.39;84.10
67133;HTU21D;54052;53.542;49.408;2023-03-03T22:12:20;-0.37;83.65
67133;HTU21D;54052;53.542;49.408;2023-03-03T22:14:46;-0.36;83.34
67133;HTU21D;54052;53.542;49.408;2023-03-03T22:17:12;-0.41;83.26
67133;HTU21D;54052;53.542;49.408;2023-03-03T22:19:38;-0.41;83.16
67133;HTU21D;54052;53.542;49.408;2023-03-03T22:22:04;-0.42;83.04
67133;HTU21D;54052;53.542;49.408;2023-03-03T22:24:30;-0.38;83.01
67133;HTU21D;54052;53.542;49.408;2023-03-03T22:26:56;-0.37;82.63
67133;HTU21D;54052;53.542;49.408;2023-03-03T22:29:22;-0.41;82.70
67133;HTU21D;54052;53.542;49.408;2023-03-03T22:31:49;-0.42;82.64
67133;HTU21D;54052;53.542;49.408;2023-03-03T22:34:15;-0.43;83.04